CheckWX is a tool to help pilots better visualize weather data.  It is not intended as a substitute for an official pre-flight weather briefing.

13:39:32 UTC

EYVI METAR
Vilnius International Airport
Vilnius, Lithuania
Current

20 mins ago

EYVI 091320Z 32009KT 290V360 9999 SCT044CB BKN073 17/10 Q1016 NOSIG
Observed
Jul-9 @ 13:20 UTC
Wind
  • 320° at 9 KTS
Visibility
10,000+ meters
Flight Rules
VFR
Cloud Levels
  • Scattered at 4,400' AGL
  • Broken at 7,300' AGL
Temperature
17°C / 63°F
Dewpoint
10°C / 50°F
Humidity
64%
Altimeter
30" Hg
Pressure
1015.92 hPa
Previous

50 mins ago

EYVI 091250Z 33011KT 9999 BKN046CB BKN080 16/10 Q1016 NOSIG
Observed
Jul-9 @ 12:50 UTC
Wind
  • 330° at 11 KTS
Visibility
10,000+ meters
Flight Rules
VFR
Cloud Levels
  • Broken at 4,600' AGL
  • Broken at 8,000' AGL
Temperature
16°C / 61°F
Dewpoint
10°C / 50°F
Humidity
68%
Altimeter
30" Hg
Pressure
1015.92 hPa
Previous

1 hour ago

EYVI 091220Z 24010KT 200V290 9999 VCSH SCT044CB BKN079 19/09 Q1016 NOSIG
Observed
Jul-9 @ 12:20 UTC
Wind
  • 240° at 10 KTS
Visibility
10,000+ meters
Flight Rules
VFR
Conditions
Area Showers
Cloud Levels
  • Scattered at 4,400' AGL
  • Broken at 7,900' AGL
Temperature
19°C / 66°F
Dewpoint
C / 48°F
Humidity
52%
Altimeter
30" Hg
Pressure
1015.92 hPa